sensor_id;sensor_type;location;lat;lon;timestamp;P1;durP1;ratioP1;P2;durP2;ratioP2
66327;SDS011;53133;52.862;6.602;2022-11-25T00:01:58;20.45;;;4.82;;
66327;SDS011;53133;52.862;6.602;2022-11-25T00:04:23;16.10;;;4.75;;
66327;SDS011;53133;52.862;6.602;2022-11-25T00:06:49;15.52;;;4.15;;
66327;SDS011;53133;52.862;6.602;2022-11-25T00:09:15;16.65;;;4.68;;
66327;SDS011;53133;52.862;6.602;2022-11-25T00:11:41;16.80;;;4.35;;
66327;SDS011;53133;52.862;6.602;2022-11-25T00:14:09;18.08;;;4.57;;
66327;SDS011;53133;52.862;6.602;2022-11-25T00:16:37;20.33;;;5.28;;
66327;SDS011;53133;52.862;6.602;2022-11-25T00:19:03;16.85;;;4.28;;
66327;SDS011;53133;52.862;6.602;2022-11-25T00:21:30;16.50;;;4.65;;
66327;SDS011;53133;52.862;6.602;2022-11-25T00:23:58;17.58;;;5.43;;
66327;SDS011;53133;52.862;6.602;2022-11-25T00:26:26;19.33;;;4.75;;
66327;SDS011;53133;52.862;6.602;2022-11-25T00:28:53;17.35;;;4.65;;
66327;SDS011;53133;52.862;6.602;2022-11-25T00:31:22;15.57;;;5.20;;
66327;SDS011;53133;52.862;6.602;2022-11-25T00:33:50;22.50;;;4.95;;
66327;SDS011;53133;52.862;6.602;2022-11-25T00:36:17;18.17;;;4.72;;
66327;SDS011;53133;52.862;6.602;2022-11-25T00:38:45;17.42;;;5.07;;
66327;SDS011;53133;52.862;6.602;2022-11-25T00:41:10;15.60;;;4.40;;
66327;SDS011;53133;52.862;6.602;2022-11-25T00:43:55;13.50;;;4.47;;
66327;SDS011;53133;52.862;6.602;2022-11-25T00:46:40;18.10;;;5.13;;
66327;SDS011;53133;52.862;6.602;2022-11-25T00:49:06;15.00;;;4.28;;
66327;SDS011;53133;52.862;6.602;2022-11-25T00:51:32;15.23;;;4.70;;
66327;SDS011;53133;52.862;6.602;2022-11-25T00:53:57;14.20;;;4.68;;
66327;SDS011;53133;52.862;6.602;2022-11-25T00:56:23;18.10;;;4.65;;
66327;SDS011;53133;52.862;6.602;2022-11-25T00:58:48;16.88;;;4.60;;
66327;SDS011;53133;52.862;6.602;2022-11-25T01:01:14;17.63;;;4.38;;
66327;SDS011;53133;52.862;6.602;2022-11-25T01:03:40;12.80;;;4.47;;
66327;SDS011;53133;52.862;6.602;2022-11-25T01:06:06;13.75;;;4.18;;
66327;SDS011;53133;52.862;6.602;2022-11-25T01:08:34;13.57;;;4.10;;
66327;SDS011;53133;52.862;6.602;2022-11-25T01:11:02;13.90;;;3.97;;
66327;SDS011;53133;52.862;6.602;2022-11-25T01:13:33;17.58;;;4.70;;
66327;SDS011;53133;52.862;6.602;2022-11-25T01:16:02;18.15;;;4.10;;
66327;SDS011;53133;52.862;6.602;2022-11-25T01:18:30;16.70;;;4.05;;
66327;SDS011;53133;52.862;6.602;2022-11-25T01:23:42;14.02;;;4.15;;
66327;SDS011;53133;52.862;6.602;2022-11-25T01:26:09;15.23;;;4.28;;
66327;SDS011;53133;52.862;6.602;2022-11-25T01:28:36;18.58;;;4.00;;
66327;SDS011;53133;52.862;6.602;2022-11-25T01:31:04;14.60;;;4.13;;
66327;SDS011;53133;52.862;6.602;2022-11-25T01:33:31;17.27;;;4.20;;
66327;SDS011;53133;52.862;6.602;2022-11-25T01:36:04;14.40;;;4.03;;
66327;SDS011;53133;52.862;6.602;2022-11-25T01:38:32;14.13;;;3.80;;
66327;SDS011;53133;52.862;6.602;2022-11-25T01:40:58;18.05;;;3.90;;
66327;SDS011;53133;52.862;6.602;2022-11-25T01:43:24;15.82;;;3.85;;
66327;SDS011;53133;52.862;6.602;2022-11-25T01:45:51;17.90;;;4.50;;
66327;SDS011;53133;52.862;6.602;2022-11-25T01:48:27;13.32;;;4.32;;
66327;SDS011;53133;52.862;6.602;2022-11-25T01:50:57;17.10;;;4.20;;
66327;SDS011;53133;52.862;6.602;2022-11-25T01:53:23;17.40;;;4.25;;
66327;SDS011;53133;52.862;6.602;2022-11-25T01:55:51;19.73;;;5.00;;
66327;SDS011;53133;52.862;6.602;2022-11-25T01:58:27;18.05;;;4.10;;
66327;SDS011;53133;52.862;6.602;2022-11-25T02:00:59;14.32;;;4.22;;
66327;SDS011;53133;52.862;6.602;2022-11-25T02:03:28;15.80;;;4.32;;
66327;SDS011;53133;52.862;6.602;2022-11-25T02:08:32;19.63;;;4.75;;
66327;SDS011;53133;52.862;6.602;2022-11-25T02:10:58;16.70;;;4.60;;
66327;SDS011;53133;52.862;6.602;2022-11-25T02:13:25;15.15;;;4.47;;
66327;SDS011;53133;52.862;6.602;2022-11-25T02:15:52;20.42;;;5.05;;
66327;SDS011;53133;52.862;6.602;2022-11-25T02:18:17;14.23;;;4.70;;
66327;SDS011;53133;52.862;6.602;2022-11-25T02:20:43;12.75;;;4.68;;
66327;SDS011;53133;52.862;6.602;2022-11-25T02:25:41;20.30;;;5.13;;
66327;SDS011;53133;52.862;6.602;2022-11-25T02:28:10;18.98;;;4.22;;
66327;SDS011;53133;52.862;6.602;2022-11-25T02:30:38;17.05;;;4.72;;
66327;SDS011;53133;52.862;6.602;2022-11-25T02:33:04;15.35;;;4.75;;
66327;SDS011;53133;52.862;6.602;2022-11-25T02:35:34;20.33;;;5.03;;
66327;SDS011;53133;52.862;6.602;2022-11-25T02:40:33;17.15;;;5.05;;
66327;SDS011;53133;52.862;6.602;2022-11-25T02:43:15;14.10;;;5.90;;
66327;SDS011;53133;52.862;6.602;2022-11-25T02:45:50;18.73;;;5.32;;
66327;SDS011;53133;52.862;6.602;2022-11-25T02:48:24;15.13;;;5.50;;
66327;SDS011;53133;52.862;6.602;2022-11-25T02:50:51;15.35;;;4.82;;
66327;SDS011;53133;52.862;6.602;2022-11-25T02:53:17;19.52;;;5.93;;
66327;SDS011;53133;52.862;6.602;2022-11-25T02:55:42;16.48;;;5.35;;
66327;SDS011;53133;52.862;6.602;2022-11-25T02:58:08;14.93;;;5.03;;
66327;SDS011;53133;52.862;6.602;2022-11-25T03:00:34;18.85;;;5.55;;
66327;SDS011;53133;52.862;6.602;2022-11-25T03:03:00;20.05;;;5.72;;
66327;SDS011;53133;52.862;6.602;2022-11-25T03:05:25;15.68;;;5.00;;
66327;SDS011;53133;52.862;6.602;2022-11-25T03:07:51;20.55;;;6.53;;
66327;SDS011;53133;52.862;6.602;2022-11-25T03:10:17;21.60;;;6.30;;
66327;SDS011;53133;52.862;6.602;2022-11-25T03:12:43;19.65;;;6.15;;
66327;SDS011;53133;52.862;6.602;2022-11-25T03:15:08;22.58;;;6.15;;
66327;SDS011;53133;52.862;6.602;2022-11-25T03:17:34;19.33;;;5.40;;
66327;SDS011;53133;52.862;6.602;2022-11-25T03:20:01;20.52;;;5.70;;
66327;SDS011;53133;52.862;6.602;2022-11-25T03:22:27;18.35;;;5.07;;
66327;SDS011;53133;52.862;6.602;2022-11-25T03:24:56;20.00;;;6.43;;
66327;SDS011;53133;52.862;6.602;2022-11-25T03:27:21;17.60;;;5.68;;
66327;SDS011;53133;52.862;6.602;2022-11-25T03:29:47;15.55;;;5.78;;
66327;SDS011;53133;52.862;6.602;2022-11-25T03:32:13;18.00;;;5.80;;
66327;SDS011;53133;52.862;6.602;2022-11-25T03:34:39;18.75;;;6.32;;
66327;SDS011;53133;52.862;6.602;2022-11-25T03:37:05;17.88;;;5.28;;
66327;SDS011;53133;52.862;6.602;2022-11-25T03:39:31;19.08;;;6.72;;
66327;SDS011;53133;52.862;6.602;2022-11-25T03:41:57;19.38;;;6.22;;
66327;SDS011;53133;52.862;6.602;2022-11-25T03:44:22;21.40;;;6.30;;
66327;SDS011;53133;52.862;6.602;2022-11-25T03:46:48;23.23;;;5.68;;
66327;SDS011;53133;52.862;6.602;2022-11-25T03:49:13;18.05;;;5.68;;
66327;SDS011;53133;52.862;6.602;2022-11-25T03:51:39;22.33;;;5.40;;
66327;SDS011;53133;52.862;6.602;2022-11-25T03:54:04;20.30;;;6.55;;
66327;SDS011;53133;52.862;6.602;2022-11-25T03:56:30;21.92;;;6.10;;
66327;SDS011;53133;52.862;6.602;2022-11-25T03:58:55;20.10;;;5.85;;
66327;SDS011;53133;52.862;6.602;2022-11-25T04:01:21;21.05;;;5.50;;
66327;SDS011;53133;52.862;6.602;2022-11-25T04:03:47;20.45;;;6.03;;
66327;SDS011;53133;52.862;6.602;2022-11-25T04:06:12;19.63;;;5.35;;
66327;SDS011;53133;52.862;6.602;2022-11-25T04:08:38;15.32;;;5.32;;
66327;SDS011;53133;52.862;6.602;2022-11-25T04:11:03;20.63;;;5.82;;
66327;SDS011;53133;52.862;6.602;2022-11-25T04:13:29;15.00;;;5.43;;
66327;SDS011;53133;52.862;6.602;2022-11-25T04:15:55;14.95;;;5.38;;
66327;SDS011;53133;52.862;6.602;2022-11-25T04:18:20;16.25;;;5.88;;
66327;SDS011;53133;52.862;6.602;2022-11-25T04:20:46;18.75;;;5.57;;
66327;SDS011;53133;52.862;6.602;2022-11-25T04:23:12;17.58;;;5.75;;
66327;SDS011;53133;52.862;6.602;2022-11-25T04:25:38;15.48;;;5.60;;
66327;SDS011;53133;52.862;6.602;2022-11-25T04:28:04;16.55;;;6.07;;
66327;SDS011;53133;52.862;6.602;2022-11-25T04:30:30;15.38;;;5.80;;
66327;SDS011;53133;52.862;6.602;2022-11-25T04:32:56;17.95;;;6.32;;
66327;SDS011;53133;52.862;6.602;2022-11-25T04:35:25;16.63;;;5.88;;
66327;SDS011;53133;52.862;6.602;2022-11-25T04:37:50;22.42;;;6.13;;
66327;SDS011;53133;52.862;6.602;2022-11-25T04:40:16;21.27;;;6.45;;
66327;SDS011;53133;52.862;6.602;2022-11-25T04:42:42;17.23;;;5.70;;
66327;SDS011;53133;52.862;6.602;2022-11-25T04:45:08;20.08;;;6.43;;
66327;SDS011;53133;52.862;6.602;2022-11-25T04:47:36;20.48;;;6.75;;
66327;SDS011;53133;52.862;6.602;2022-11-25T04:50:03;16.58;;;6.32;;
66327;SDS011;53133;52.862;6.602;2022-11-25T04:52:31;18.73;;;7.00;;
66327;SDS011;53133;52.862;6.602;2022-11-25T04:54:57;24.63;;;7.22;;
66327;SDS011;53133;52.862;6.602;2022-11-25T04:57:23;22.15;;;6.28;;
66327;SDS011;53133;52.862;6.602;2022-11-25T04:59:49;17.10;;;6.65;;
66327;SDS011;53133;52.862;6.602;2022-11-25T05:02:19;17.60;;;6.82;;
66327;SDS011;53133;52.862;6.602;2022-11-25T05:04:50;32.03;;;8.35;;
66327;SDS011;53133;52.862;6.602;2022-11-25T05:07:18;19.45;;;7.05;;
66327;SDS011;53133;52.862;6.602;2022-11-25T05:09:45;23.50;;;7.80;;
66327;SDS011;53133;52.862;6.602;2022-11-25T05:12:12;18.75;;;7.30;;
66327;SDS011;53133;52.862;6.602;2022-11-25T05:14:40;16.48;;;6.18;;
66327;SDS011;53133;52.862;6.602;2022-11-25T05:17:06;20.05;;;7.57;;
66327;SDS011;53133;52.862;6.602;2022-11-25T05:19:32;26.10;;;8.20;;
66327;SDS011;53133;52.862;6.602;2022-11-25T05:22:00;19.92;;;8.05;;
66327;SDS011;53133;52.862;6.602;2022-11-25T05:24:25;19.83;;;8.07;;
66327;SDS011;53133;52.862;6.602;2022-11-25T05:26:51;19.73;;;7.30;;
66327;SDS011;53133;52.862;6.602;2022-11-25T05:29:17;21.27;;;7.10;;
66327;SDS011;53133;52.862;6.602;2022-11-25T05:31:42;23.45;;;7.63;;
66327;SDS011;53133;52.862;6.602;2022-11-25T05:34:08;23.67;;;8.02;;
66327;SDS011;53133;52.862;6.602;2022-11-25T05:36:34;20.85;;;7.75;;
66327;SDS011;53133;52.862;6.602;2022-11-25T05:39:02;15.00;;;7.20;;
66327;SDS011;53133;52.862;6.602;2022-11-25T05:41:28;24.92;;;8.38;;
66327;SDS011;53133;52.862;6.602;2022-11-25T05:43:54;21.42;;;7.90;;
66327;SDS011;53133;52.862;6.602;2022-11-25T05:46:19;17.33;;;7.60;;
66327;SDS011;53133;52.862;6.602;2022-11-25T05:48:45;19.95;;;7.85;;
66327;SDS011;53133;52.862;6.602;2022-11-25T05:51:11;20.00;;;7.57;;
66327;SDS011;53133;52.862;6.602;2022-11-25T05:53:36;28.30;;;8.68;;
66327;SDS011;53133;52.862;6.602;2022-11-25T05:56:03;21.15;;;7.53;;
66327;SDS011;53133;52.862;6.602;2022-11-25T05:58:30;27.27;;;8.50;;
66327;SDS011;53133;52.862;6.602;2022-11-25T06:00:56;24.52;;;8.70;;
66327;SDS011;53133;52.862;6.602;2022-11-25T06:03:24;25.73;;;8.90;;
66327;SDS011;53133;52.862;6.602;2022-11-25T06:05:50;25.73;;;10.65;;
66327;SDS011;53133;52.862;6.602;2022-11-25T06:08:16;21.25;;;10.20;;
66327;SDS011;53133;52.862;6.602;2022-11-25T06:10:41;20.77;;;8.27;;
66327;SDS011;53133;52.862;6.602;2022-11-25T06:13:07;21.45;;;9.02;;
66327;SDS011;53133;52.862;6.602;2022-11-25T06:15:33;20.20;;;7.60;;
66327;SDS011;53133;52.862;6.602;2022-11-25T06:18:03;17.40;;;7.30;;
66327;SDS011;53133;52.862;6.602;2022-11-25T06:20:29;18.90;;;8.13;;
66327;SDS011;53133;52.862;6.602;2022-11-25T06:22:56;17.75;;;6.70;;
66327;SDS011;53133;52.862;6.602;2022-11-25T06:25:22;16.52;;;6.32;;
66327;SDS011;53133;52.862;6.602;2022-11-25T06:27:48;17.15;;;5.97;;
66327;SDS011;53133;52.862;6.602;2022-11-25T06:30:14;17.52;;;5.60;;
66327;SDS011;53133;52.862;6.602;2022-11-25T06:32:40;13.32;;;5.70;;
66327;SDS011;53133;52.862;6.602;2022-11-25T06:35:06;15.50;;;5.55;;
66327;SDS011;53133;52.862;6.602;2022-11-25T06:37:32;19.92;;;6.10;;
66327;SDS011;53133;52.862;6.602;2022-11-25T06:39:57;13.85;;;5.45;;
66327;SDS011;53133;52.862;6.602;2022-11-25T06:42:23;17.10;;;5.25;;
66327;SDS011;53133;52.862;6.602;2022-11-25T06:44:49;13.43;;;5.05;;
66327;SDS011;53133;52.862;6.602;2022-11-25T06:47:14;15.80;;;6.55;;
66327;SDS011;53133;52.862;6.602;2022-11-25T06:49:40;13.85;;;5.07;;
66327;SDS011;53133;52.862;6.602;2022-11-25T06:52:05;21.65;;;6.10;;
66327;SDS011;53133;52.862;6.602;2022-11-25T06:54:32;16.55;;;5.43;;
66327;SDS011;53133;52.862;6.602;2022-11-25T06:56:57;16.98;;;5.63;;
66327;SDS011;53133;52.862;6.602;2022-11-25T06:59:23;17.10;;;6.18;;
66327;SDS011;53133;52.862;6.602;2022-11-25T07:01:49;21.48;;;6.50;;
66327;SDS011;53133;52.862;6.602;2022-11-25T07:04:14;14.77;;;6.10;;
66327;SDS011;53133;52.862;6.602;2022-11-25T07:06:40;12.18;;;4.95;;
66327;SDS011;53133;52.862;6.602;2022-11-25T07:09:06;10.48;;;4.45;;
66327;SDS011;53133;52.862;6.602;2022-11-25T07:11:32;14.57;;;4.88;;
66327;SDS011;53133;52.862;6.602;2022-11-25T07:14:01;13.25;;;5.07;;
66327;SDS011;53133;52.862;6.602;2022-11-25T07:16:29;13.65;;;4.65;;
66327;SDS011;53133;52.862;6.602;2022-11-25T07:18:57;16.88;;;4.75;;
66327;SDS011;53133;52.862;6.602;2022-11-25T07:21:24;16.23;;;5.47;;
66327;SDS011;53133;52.862;6.602;2022-11-25T07:23:50;12.40;;;4.65;;
66327;SDS011;53133;52.862;6.602;2022-11-25T07:26:17;16.77;;;5.47;;
66327;SDS011;53133;52.862;6.602;2022-11-25T07:28:43;17.17;;;4.53;;
66327;SDS011;53133;52.862;6.602;2022-11-25T07:33:39;17.35;;;5.13;;
66327;SDS011;53133;52.862;6.602;2022-11-25T07:36:05;19.58;;;6.20;;
66327;SDS011;53133;52.862;6.602;2022-11-25T07:38:33;14.23;;;5.75;;
66327;SDS011;53133;52.862;6.602;2022-11-25T07:41:06;15.90;;;5.40;;
66327;SDS011;53133;52.862;6.602;2022-11-25T07:43:34;15.18;;;4.90;;
66327;SDS011;53133;52.862;6.602;2022-11-25T07:46:09;12.38;;;4.57;;
66327;SDS011;53133;52.862;6.602;2022-11-25T07:48:40;9.93;;;4.68;;
66327;SDS011;53133;52.862;6.602;2022-11-25T07:54:06;13.40;;;4.88;;
66327;SDS011;53133;52.862;6.602;2022-11-25T07:56:35;12.98;;;5.00;;
66327;SDS011;53133;52.862;6.602;2022-11-25T07:59:02;14.00;;;4.40;;
66327;SDS011;53133;52.862;6.602;2022-11-25T08:01:28;12.60;;;4.47;;
66327;SDS011;53133;52.862;6.602;2022-11-25T08:03:54;13.88;;;4.70;;
66327;SDS011;53133;52.862;6.602;2022-11-25T08:06:21;13.55;;;3.90;;
66327;SDS011;53133;52.862;6.602;2022-11-25T08:08:49;17.23;;;4.30;;
66327;SDS011;53133;52.862;6.602;2022-11-25T08:11:18;11.80;;;4.78;;
66327;SDS011;53133;52.862;6.602;2022-11-25T08:13:45;10.20;;;4.47;;
66327;SDS011;53133;52.862;6.602;2022-11-25T08:16:12;13.00;;;4.03;;
66327;SDS011;53133;52.862;6.602;2022-11-25T08:18:40;10.65;;;4.53;;
66327;SDS011;53133;52.862;6.602;2022-11-25T08:21:07;13.60;;;4.45;;
66327;SDS011;53133;52.862;6.602;2022-11-25T08:23:34;15.48;;;4.38;;
66327;SDS011;53133;52.862;6.602;2022-11-25T08:26:06;14.18;;;4.32;;
66327;SDS011;53133;52.862;6.602;2022-11-25T08:28:34;10.73;;;4.45;;
66327;SDS011;53133;52.862;6.602;2022-11-25T08:31:08;12.02;;;4.43;;
66327;SDS011;53133;52.862;6.602;2022-11-25T08:33:41;13.63;;;4.40;;
66327;SDS011;53133;52.862;6.602;2022-11-25T08:36:07;13.30;;;4.72;;
66327;SDS011;53133;52.862;6.602;2022-11-25T08:38:33;21.13;;;7.72;;
66327;SDS011;53133;52.862;6.602;2022-11-25T08:40:59;22.70;;;9.32;;
66327;SDS011;53133;52.862;6.602;2022-11-25T08:43:25;12.40;;;5.20;;
66327;SDS011;53133;52.862;6.602;2022-11-25T08:45:51;14.35;;;4.82;;
66327;SDS011;53133;52.862;6.602;2022-11-25T08:48:17;12.50;;;4.88;;
66327;SDS011;53133;52.862;6.602;2022-11-25T08:50:46;14.82;;;4.75;;
66327;SDS011;53133;52.862;6.602;2022-11-25T08:53:14;17.20;;;5.50;;
66327;SDS011;53133;52.862;6.602;2022-11-25T08:55:39;11.68;;;5.05;;
66327;SDS011;53133;52.862;6.602;2022-11-25T08:58:05;13.00;;;5.35;;
66327;SDS011;53133;52.862;6.602;2022-11-25T09:00:34;13.32;;;5.40;;
66327;SDS011;53133;52.862;6.602;2022-11-25T09:03:09;13.05;;;5.07;;
66327;SDS011;53133;52.862;6.602;2022-11-25T09:05:39;14.38;;;5.78;;
66327;SDS011;53133;52.862;6.602;2022-11-25T09:08:07;17.38;;;5.85;;
66327;SDS011;53133;52.862;6.602;2022-11-25T09:10:33;14.02;;;5.22;;
66327;SDS011;53133;52.862;6.602;2022-11-25T09:13:00;18.42;;;5.60;;
66327;SDS011;53133;52.862;6.602;2022-11-25T09:15:25;15.18;;;5.13;;
66327;SDS011;53133;52.862;6.602;2022-11-25T09:17:58;15.50;;;5.68;;
66327;SDS011;53133;52.862;6.602;2022-11-25T09:20:24;16.60;;;6.28;;
66327;SDS011;53133;52.862;6.602;2022-11-25T09:22:50;14.50;;;6.22;;
66327;SDS011;53133;52.862;6.602;2022-11-25T09:25:16;14.45;;;6.05;;
66327;SDS011;53133;52.862;6.602;2022-11-25T09:27:41;11.13;;;5.50;;
66327;SDS011;53133;52.862;6.602;2022-11-25T09:30:07;18.58;;;6.10;;
66327;SDS011;53133;52.862;6.602;2022-11-25T09:32:33;13.43;;;5.35;;
66327;SDS011;53133;52.862;6.602;2022-11-25T09:34:58;12.80;;;5.80;;
66327;SDS011;53133;52.862;6.602;2022-11-25T09:37:24;16.63;;;7.05;;
66327;SDS011;53133;52.862;6.602;2022-11-25T09:39:51;18.88;;;7.97;;
66327;SDS011;53133;52.862;6.602;2022-11-25T09:45:26;15.48;;;6.50;;
66327;SDS011;53133;52.862;6.602;2022-11-25T09:51:29;8.52;;;5.00;;
66327;SDS011;53133;52.862;6.602;2022-11-25T09:54:17;14.25;;;5.40;;
66327;SDS011;53133;52.862;6.602;2022-11-25T09:56:50;9.85;;;5.47;;
66327;SDS011;53133;52.862;6.602;2022-11-25T09:59:21;16.85;;;5.38;;
66327;SDS011;53133;52.862;6.602;2022-11-25T10:02:33;10.73;;;5.22;;
66327;SDS011;53133;52.862;6.602;2022-11-25T10:05:08;10.55;;;4.68;;
66327;SDS011;53133;52.862;6.602;2022-11-25T10:07:47;15.02;;;5.07;;
66327;SDS011;53133;52.862;6.602;2022-11-25T10:10:18;11.32;;;4.70;;
66327;SDS011;53133;52.862;6.602;2022-11-25T10:12:48;10.68;;;4.97;;
66327;SDS011;53133;52.862;6.602;2022-11-25T10:15:20;11.18;;;4.85;;
66327;SDS011;53133;52.862;6.602;2022-11-25T10:17:51;9.93;;;5.28;;
66327;SDS011;53133;52.862;6.602;2022-11-25T10:20:29;12.23;;;4.68;;
66327;SDS011;53133;52.862;6.602;2022-11-25T10:23:01;13.88;;;5.25;;
66327;SDS011;53133;52.862;6.602;2022-11-25T10:25:30;15.00;;;5.32;;
66327;SDS011;53133;52.862;6.602;2022-11-25T10:28:02;10.50;;;4.50;;
66327;SDS011;53133;52.862;6.602;2022-11-25T10:33:30;8.43;;;3.88;;
66327;SDS011;53133;52.862;6.602;2022-11-25T10:36:17;8.93;;;4.20;;
66327;SDS011;53133;52.862;6.602;2022-11-25T10:41:32;10.45;;;3.90;;
66327;SDS011;53133;52.862;6.602;2022-11-25T10:44:02;10.98;;;4.35;;
66327;SDS011;53133;52.862;6.602;2022-11-25T10:49:00;10.27;;;4.38;;
66327;SDS011;53133;52.862;6.602;2022-11-25T10:51:49;8.82;;;3.97;;
66327;SDS011;53133;52.862;6.602;2022-11-25T10:54:19;12.50;;;3.88;;
66327;SDS011;53133;52.862;6.602;2022-11-25T10:59:33;14.18;;;3.90;;
66327;SDS011;53133;52.862;6.602;2022-11-25T11:02:20;11.77;;;4.28;;
66327;SDS011;53133;52.862;6.602;2022-11-25T11:04:53;11.63;;;3.65;;
66327;SDS011;53133;52.862;6.602;2022-11-25T11:07:29;11.02;;;3.75;;
66327;SDS011;53133;52.862;6.602;2022-11-25T11:10:32;10.18;;;3.90;;
66327;SDS011;53133;52.862;6.602;2022-11-25T11:12:55;10.55;;;3.47;;
66327;SDS011;53133;52.862;6.602;2022-11-25T11:17:57;12.38;;;3.60;;
66327;SDS011;53133;52.862;6.602;2022-11-25T11:20:47;11.18;;;3.90;;
66327;SDS011;53133;52.862;6.602;2022-11-25T11:23:15;18.27;;;4.68;;
66327;SDS011;53133;52.862;6.602;2022-11-25T11:25:42;12.02;;;3.78;;
66327;SDS011;53133;52.862;6.602;2022-11-25T11:30:59;11.43;;;3.80;;
66327;SDS011;53133;52.862;6.602;2022-11-25T11:36:00;10.77;;;3.33;;
66327;SDS011;53133;52.862;6.602;2022-11-25T11:38:32;11.88;;;3.45;;
66327;SDS011;53133;52.862;6.602;2022-11-25T11:46:49;9.75;;;3.28;;
66327;SDS011;53133;52.862;6.602;2022-11-25T11:49:43;9.70;;;3.20;;
66327;SDS011;53133;52.862;6.602;2022-11-25T11:55:33;10.75;;;3.65;;
66327;SDS011;53133;52.862;6.602;2022-11-25T12:01:02;13.32;;;3.30;;
66327;SDS011;53133;52.862;6.602;2022-11-25T12:03:37;12.48;;;3.00;;
66327;SDS011;53133;52.862;6.602;2022-11-25T12:06:14;10.63;;;2.97;;
66327;SDS011;53133;52.862;6.602;2022-11-25T12:08:45;9.20;;;3.22;;
66327;SDS011;53133;52.862;6.602;2022-11-25T12:11:18;11.90;;;3.22;;
66327;SDS011;53133;52.862;6.602;2022-11-25T12:16:29;12.38;;;3.22;;
66327;SDS011;53133;52.862;6.602;2022-11-25T12:25:07;11.10;;;3.38;;
66327;SDS011;53133;52.862;6.602;2022-11-25T12:27:41;13.53;;;3.10;;
66327;SDS011;53133;52.862;6.602;2022-11-25T12:32:44;13.90;;;4.07;;
66327;SDS011;53133;52.862;6.602;2022-11-25T12:35:35;10.60;;;3.65;;
66327;SDS011;53133;52.862;6.602;2022-11-25T12:46:16;11.88;;;3.40;;
66327;SDS011;53133;52.862;6.602;2022-11-25T12:48:46;13.40;;;4.05;;
66327;SDS011;53133;52.862;6.602;2022-11-25T12:51:31;14.70;;;3.70;;
66327;SDS011;53133;52.862;6.602;2022-11-25T12:54:28;12.60;;;4.05;;
66327;SDS011;53133;52.862;6.602;2022-11-25T12:57:21;14.03;;;3.80;;
66327;SDS011;53133;52.862;6.602;2022-11-25T13:00:19;14.93;;;3.95;;
66327;SDS011;53133;52.862;6.602;2022-11-25T13:16:21;15.57;;;4.03;;
66327;SDS011;53133;52.862;6.602;2022-11-25T13:18:48;12.32;;;3.50;;
66327;SDS011;53133;52.862;6.602;2022-11-25T13:21:14;16.48;;;4.20;;
66327;SDS011;53133;52.862;6.602;2022-11-25T13:23:51;10.02;;;3.58;;
66327;SDS011;53133;52.862;6.602;2022-11-25T13:28:52;14.43;;;3.58;;
66327;SDS011;53133;52.862;6.602;2022-11-25T13:31:31;15.95;;;3.63;;
66327;SDS011;53133;52.862;6.602;2022-11-25T13:34:23;21.65;;;4.53;;
66327;SDS011;53133;52.862;6.602;2022-11-25T13:36:57;13.88;;;3.70;;
66327;SDS011;53133;52.862;6.602;2022-11-25T13:39:28;14.93;;;3.58;;
66327;SDS011;53133;52.862;6.602;2022-11-25T13:41:59;14.48;;;3.55;;
66327;SDS011;53133;52.862;6.602;2022-11-25T13:44:48;13.40;;;3.83;;
66327;SDS011;53133;52.862;6.602;2022-11-25T13:49:55;13.55;;;4.05;;
66327;SDS011;53133;52.862;6.602;2022-11-25T13:52:41;18.50;;;5.88;;
66327;SDS011;53133;52.862;6.602;2022-11-25T13:57:46;21.15;;;4.70;;
66327;SDS011;53133;52.862;6.602;2022-11-25T14:02:49;13.65;;;3.50;;
66327;SDS011;53133;52.862;6.602;2022-11-25T14:11:29;14.40;;;3.47;;
66327;SDS011;53133;52.862;6.602;2022-11-25T14:14:07;12.50;;;3.80;;
66327;SDS011;53133;52.862;6.602;2022-11-25T14:20:01;12.20;;;3.70;;
66327;SDS011;53133;52.862;6.602;2022-11-25T14:23:00;20.17;;;4.28;;
66327;SDS011;53133;52.862;6.602;2022-11-25T14:25:43;14.02;;;3.35;;
66327;SDS011;53133;52.862;6.602;2022-11-25T14:28:20;12.82;;;3.55;;
66327;SDS011;53133;52.862;6.602;2022-11-25T14:33:28;15.27;;;3.47;;
66327;SDS011;53133;52.862;6.602;2022-11-25T14:36:26;16.48;;;4.40;;
66327;SDS011;53133;52.862;6.602;2022-11-25T14:42:07;12.13;;;3.30;;
66327;SDS011;53133;52.862;6.602;2022-11-25T14:44:40;16.13;;;3.15;;
66327;SDS011;53133;52.862;6.602;2022-11-25T14:47:14;15.23;;;4.00;;
66327;SDS011;53133;52.862;6.602;2022-11-25T14:50:00;14.88;;;3.80;;
66327;SDS011;53133;52.862;6.602;2022-11-25T14:52:26;13.73;;;4.07;;
66327;SDS011;53133;52.862;6.602;2022-11-25T14:54:54;14.40;;;3.92;;
66327;SDS011;53133;52.862;6.602;2022-11-25T14:57:21;17.05;;;4.22;;
66327;SDS011;53133;52.862;6.602;2022-11-25T14:59:50;10.80;;;3.60;;
66327;SDS011;53133;52.862;6.602;2022-11-25T15:02:28;14.88;;;3.42;;
66327;SDS011;53133;52.862;6.602;2022-11-25T15:05:07;12.07;;;3.40;;
66327;SDS011;53133;52.862;6.602;2022-11-25T15:07:54;14.95;;;4.15;;
66327;SDS011;53133;52.862;6.602;2022-11-25T15:10:27;22.05;;;6.20;;
66327;SDS011;53133;52.862;6.602;2022-11-25T15:12:56;19.38;;;4.68;;
66327;SDS011;53133;52.862;6.602;2022-11-25T15:15:24;18.70;;;4.40;;
66327;SDS011;53133;52.862;6.602;2022-11-25T15:17:51;19.52;;;5.55;;
66327;SDS011;53133;52.862;6.602;2022-11-25T15:20:19;24.48;;;7.32;;
66327;SDS011;53133;52.862;6.602;2022-11-25T15:22:47;16.67;;;6.43;;
66327;SDS011;53133;52.862;6.602;2022-11-25T15:25:15;17.08;;;6.25;;
66327;SDS011;53133;52.862;6.602;2022-11-25T15:27:52;13.85;;;5.93;;
66327;SDS011;53133;52.862;6.602;2022-11-25T15:30:19;17.83;;;5.90;;
66327;SDS011;53133;52.862;6.602;2022-11-25T15:32:49;12.13;;;4.32;;
66327;SDS011;53133;52.862;6.602;2022-11-25T15:35:16;20.30;;;4.65;;
66327;SDS011;53133;52.862;6.602;2022-11-25T15:37:45;18.00;;;5.15;;
66327;SDS011;53133;52.862;6.602;2022-11-25T15:40:28;10.98;;;5.22;;
66327;SDS011;53133;52.862;6.602;2022-11-25T15:43:01;11.82;;;4.75;;
66327;SDS011;53133;52.862;6.602;2022-11-25T15:45:33;13.57;;;5.82;;
66327;SDS011;53133;52.862;6.602;2022-11-25T15:48:11;25.73;;;10.95;;
66327;SDS011;53133;52.862;6.602;2022-11-25T15:51:01;27.65;;;15.20;;
66327;SDS011;53133;52.862;6.602;2022-11-25T15:53:29;24.98;;;12.55;;
66327;SDS011;53133;52.862;6.602;2022-11-25T15:56:01;20.90;;;10.43;;
66327;SDS011;53133;52.862;6.602;2022-11-25T15:58:28;18.27;;;10.07;;
66327;SDS011;53133;52.862;6.602;2022-11-25T16:01:00;18.60;;;9.10;;
66327;SDS011;53133;52.862;6.602;2022-11-25T16:03:28;14.88;;;7.45;;
66327;SDS011;53133;52.862;6.602;2022-11-25T16:05:56;14.93;;;6.20;;
66327;SDS011;53133;52.862;6.602;2022-11-25T16:11:14;24.90;;;9.25;;
66327;SDS011;53133;52.862;6.602;2022-11-25T16:13:43;22.25;;;9.35;;
66327;SDS011;53133;52.862;6.602;2022-11-25T16:18:40;20.65;;;9.32;;
66327;SDS011;53133;52.862;6.602;2022-11-25T16:21:29;23.45;;;11.65;;
66327;SDS011;53133;52.862;6.602;2022-11-25T16:31:56;13.48;;;8.13;;
66327;SDS011;53133;52.862;6.602;2022-11-25T16:34:22;16.25;;;6.70;;
66327;SDS011;53133;52.862;6.602;2022-11-25T16:36:49;13.93;;;8.70;;
66327;SDS011;53133;52.862;6.602;2022-11-25T16:39:15;24.23;;;14.00;;
66327;SDS011;53133;52.862;6.602;2022-11-25T16:41:41;28.02;;;20.02;;
66327;SDS011;53133;52.862;6.602;2022-11-25T16:44:17;23.92;;;19.70;;
66327;SDS011;53133;52.862;6.602;2022-11-25T16:46:45;21.25;;;13.15;;
66327;SDS011;53133;52.862;6.602;2022-11-25T16:49:14;19.02;;;11.65;;
66327;SDS011;53133;52.862;6.602;2022-11-25T16:51:41;19.42;;;12.90;;
66327;SDS011;53133;52.862;6.602;2022-11-25T16:54:07;42.20;;;29.23;;